createdAt,value
2018-06-17T00:00:55.050Z,18.18
2018-06-17T00:02:03.960Z,18.05
2018-06-17T00:03:12.821Z,18.08
2018-06-17T00:04:21.959Z,18.05
2018-06-17T00:05:30.822Z,18.08
2018-06-17T00:06:39.682Z,18.07
2018-06-17T00:07:48.644Z,18.08
2018-06-17T00:08:57.503Z,18
2018-06-17T00:10:06.649Z,18.03
2018-06-17T00:11:16.073Z,18.1
2018-06-17T00:12:24.933Z,18.1
2018-06-17T00:13:34.146Z,18.03
2018-06-17T00:14:43.282Z,18
2018-06-17T00:15:52.147Z,18
2018-06-17T00:17:01.286Z,18
2018-06-17T00:18:10.155Z,18.05
2018-06-17T00:19:19.165Z,17.97
2018-06-17T00:20:28.307Z,17.92
2018-06-17T00:21:37.164Z,17.96
2018-06-17T00:22:46.027Z,17.93
2018-06-17T00:23:54.891Z,17.86
2018-06-17T00:25:03.802Z,17.82
2018-06-17T00:26:12.664Z,17.93
2018-06-17T00:27:21.524Z,17.96
2018-06-17T00:28:30.389Z,17.87
2018-06-17T00:29:39.525Z,17.92
2018-06-17T00:30:48.387Z,17.9
2018-06-17T00:31:57.249Z,17.9
2018-06-17T00:33:06.110Z,17.9
2018-06-17T00:34:15.254Z,17.86
2018-06-17T00:35:24.388Z,17.84
2018-06-17T00:36:33.880Z,17.9
2018-06-17T00:37:42.741Z,17.86
2018-06-17T00:38:51.603Z,17.99
2018-06-17T00:40:00.466Z,18
2018-06-17T00:41:09.327Z,18.02
2018-06-17T00:42:18.565Z,17.97
2018-06-17T00:43:27.428Z,18.02
2018-06-17T00:44:36.290Z,18.03
2018-06-17T00:45:45.147Z,18.02
2018-06-17T00:46:54.009Z,18.08
2018-06-17T00:48:02.918Z,18.05
2018-06-17T00:49:11.779Z,18.11
2018-06-17T00:50:20.638Z,18.08
2018-06-17T00:51:29.499Z,18.11
2018-06-17T00:52:38.360Z,18.18
2018-06-17T00:53:47.580Z,18.1
2018-06-17T00:54:56.444Z,18.07
2018-06-17T00:56:05.584Z,18.1
2018-06-17T00:57:14.448Z,18.08
2018-06-17T00:58:23.305Z,18
2018-06-17T00:59:32.448Z,18
2018-06-17T01:00:41.313Z,17.95
2018-06-17T01:01:50.175Z,17.87
2018-06-17T01:02:59.038Z,17.9
2018-06-17T01:04:07.898Z,17.7
2018-06-17T01:05:16.861Z,17.7
2018-06-17T01:06:25.727Z,17.71
2018-06-17T01:07:34.583Z,17.64
2018-06-17T01:08:43.444Z,17.74
2018-06-17T01:09:52.308Z,17.68
2018-06-17T01:11:01.518Z,17.78
2018-06-17T01:12:10.381Z,17.75
2018-06-17T01:13:19.241Z,17.64
2018-06-17T01:14:28.104Z,17.68
2018-06-17T01:15:36.963Z,17.77
2018-06-17T01:16:46.251Z,17.75
2018-06-17T01:17:55.112Z,17.75
2018-06-17T01:19:04.363Z,17.66
2018-06-17T01:20:13.501Z,17.7
2018-06-17T01:21:22.362Z,17.7
2018-06-17T01:22:31.223Z,17.68
2018-06-17T01:23:40.084Z,17.63
2018-06-17T01:24:48.946Z,17.68
2018-06-17T01:25:58.082Z,17.68
2018-06-17T01:27:06.941Z,17.68
2018-06-17T01:28:15.904Z,17.66
2018-06-17T01:29:24.765Z,17.64
2018-06-17T01:30:33.628Z,17.51
2018-06-17T01:31:42.769Z,17.52
2018-06-17T01:32:51.624Z,17.49
2018-06-17T01:34:00.589Z,17.59
2018-06-17T01:35:09.451Z,17.54
2018-06-17T01:36:18.313Z,17.49
2018-06-17T01:37:27.225Z,17.51
2018-06-17T01:38:36.089Z,17.49
2018-06-17T01:39:45.274Z,17.55
2018-06-17T01:40:54.135Z,17.49
2018-06-17T01:42:02.999Z,17.55
2018-06-17T01:43:11.862Z,17.48
2018-06-17T01:44:20.722Z,17.41
2018-06-17T01:45:29.681Z,17.41
2018-06-17T01:46:38.543Z,17.49
2018-06-17T01:47:47.686Z,17.49
2018-06-17T01:48:56.820Z,17.54
2018-06-17T01:50:05.681Z,17.44
2018-06-17T01:51:14.543Z,17.54
2018-06-17T01:52:23.407Z,17.44
2018-06-17T01:53:32.546Z,17.48
2018-06-17T01:54:41.407Z,17.4
2018-06-17T01:55:50.547Z,17.38
2018-06-17T01:56:59.402Z,17.38
2018-06-17T01:58:08.267Z,17.38
2018-06-17T01:59:17.126Z,17.34
2018-06-17T02:00:26.666Z,17.31
2018-06-17T02:01:35.534Z,17.34
2018-06-17T02:02:44.718Z,17.23
2018-06-17T02:03:53.580Z,17.23
2018-06-17T02:05:02.733Z,17.22
2018-06-17T02:06:11.861Z,17.18
2018-06-17T02:07:20.727Z,17.21
2018-06-17T02:08:29.590Z,17.22
2018-06-17T02:09:38.451Z,17.11
2018-06-17T02:10:47.309Z,17.12
2018-06-17T02:11:56.446Z,17.12
2018-06-17T02:13:05.330Z,17.16
2018-06-17T02:14:14.291Z,17.01
2018-06-17T02:15:23.434Z,16.97
2018-06-17T02:16:32.848Z,16.98
2018-06-17T02:17:41.984Z,16.96
2018-06-17T02:18:50.845Z,16.91
2018-06-17T02:19:59.806Z,17
2018-06-17T02:21:08.963Z,16.93
2018-06-17T02:22:17.826Z,17.03
2018-06-17T02:23:26.964Z,16.94
2018-06-17T02:24:35.821Z,16.93
2018-06-17T02:25:44.733Z,16.93
2018-06-17T02:26:53.594Z,16.94
2018-06-17T02:28:02.455Z,16.91
2018-06-17T02:29:11.319Z,16.94
2018-06-17T02:30:20.181Z,16.85
2018-06-17T02:31:29.908Z,16.83
2018-06-17T02:32:39.333Z,16.86
2018-06-17T02:33:48.470Z,16.81
2018-06-17T02:34:57.625Z,16.85
2018-06-17T02:36:06.765Z,16.82
2018-06-17T02:37:16.284Z,16.78
2018-06-17T02:38:25.703Z,16.78
2018-06-17T02:39:34.848Z,16.81
2018-06-17T02:40:43.988Z,16.76
2018-06-17T02:41:52.870Z,16.71
2018-06-17T02:43:02.293Z,16.64
2018-06-17T02:44:11.730Z,16.67
2018-06-17T02:45:20.870Z,16.63
2018-06-17T02:46:30.287Z,16.56
2018-06-17T02:47:39.985Z,16.61
2018-06-17T02:48:48.900Z,16.49
2018-06-17T02:49:57.771Z,16.5
2018-06-17T02:51:06.907Z,16.52
2018-06-17T02:52:15.771Z,16.38
2018-06-17T02:53:25.197Z,16.31
2018-06-17T02:54:34.390Z,16.38
2018-06-17T02:55:43.809Z,16.3
2018-06-17T02:56:53.228Z,16.31
2018-06-17T02:58:02.089Z,16.34
2018-06-17T02:59:11.226Z,16.28
2018-06-17T03:00:20.095Z,16.21
2018-06-17T03:01:29.262Z,16.25
2018-06-17T03:02:38.398Z,16.23
2018-06-17T03:03:47.603Z,16.24
2018-06-17T03:04:56.408Z,16.21
2018-06-17T03:06:05.562Z,16.2
2018-06-17T03:07:14.690Z,16.15
2018-06-17T03:08:24.119Z,16.15
2018-06-17T03:09:33.268Z,16.11
2018-06-17T03:10:42.135Z,16.02
2018-06-17T03:11:51.100Z,16.17
2018-06-17T03:12:59.959Z,16.04
2018-06-17T03:14:09.378Z,16.01
2018-06-17T03:15:18.240Z,16.04
2018-06-17T03:16:27.384Z,15.96
2018-06-17T03:17:36.298Z,15.97
2018-06-17T03:18:45.433Z,16.07
2018-06-17T03:19:54.292Z,16
2018-06-17T03:21:03.433Z,15.93
2018-06-17T03:22:12.295Z,16.05
2018-06-17T03:23:21.254Z,16
2018-06-17T03:24:30.391Z,15.9
2018-06-17T03:25:39.531Z,15.96
2018-06-17T03:26:48.390Z,15.93
2018-06-17T03:27:57.250Z,15.82
2018-06-17T03:29:06.361Z,15.82
2018-06-17T03:30:15.225Z,15.83
2018-06-17T03:31:24.657Z,15.86
2018-06-17T03:32:33.805Z,15.78
2018-06-17T03:33:42.666Z,15.84
2018-06-17T03:34:51.524Z,15.82
2018-06-17T03:36:00.388Z,15.83
2018-06-17T03:37:09.248Z,15.78
2018-06-17T03:38:18.111Z,15.71
2018-06-17T03:39:26.969Z,15.75
2018-06-17T03:40:36.214Z,15.74
2018-06-17T03:41:45.076Z,15.71
2018-06-17T03:42:53.938Z,15.67
2018-06-17T03:44:03.081Z,15.74
2018-06-17T03:45:11.941Z,15.71
2018-06-17T03:46:21.131Z,15.65
2018-06-17T03:47:29.989Z,15.75
2018-06-17T03:48:38.849Z,15.69
2018-06-17T03:49:47.711Z,15.71
2018-06-17T03:50:56.570Z,15.65
2018-06-17T03:52:05.585Z,15.72
2018-06-17T03:53:14.729Z,15.64
2018-06-17T03:54:24.152Z,15.71
2018-06-17T03:55:33.012Z,15.67
2018-06-17T03:56:41.874Z,15.65
2018-06-17T03:57:51.364Z,15.64
2018-06-17T03:59:00.223Z,15.62
2018-06-17T04:00:09.086Z,15.69
2018-06-17T04:01:17.946Z,15.6
2018-06-17T04:02:26.807Z,15.67
2018-06-17T04:03:36.195Z,15.68
2018-06-17T04:04:45.054Z,15.62
2018-06-17T04:05:53.915Z,15.68
2018-06-17T04:07:02.780Z,15.68
2018-06-17T04:08:11.648Z,15.74
2018-06-17T04:09:20.508Z,15.71
2018-06-17T04:10:29.779Z,15.69
2018-06-17T04:11:38.641Z,15.67
2018-06-17T04:12:47.506Z,15.72
2018-06-17T04:13:56.653Z,15.72
2018-06-17T04:15:05.515Z,15.68
2018-06-17T04:16:14.655Z,15.74
2018-06-17T04:17:23.792Z,15.8
2018-06-17T04:18:32.653Z,15.76
2018-06-17T04:19:41.515Z,15.84
2018-06-17T04:20:50.574Z,15.82
2018-06-17T04:21:59.715Z,15.84
2018-06-17T04:23:08.861Z,15.84
2018-06-17T04:24:17.721Z,15.84
2018-06-17T04:25:26.618Z,15.89
2018-06-17T04:26:35.592Z,15.83
2018-06-17T04:27:44.453Z,15.93
2018-06-17T04:28:53.312Z,16.01
2018-06-17T04:30:02.480Z,15.9
2018-06-17T04:31:11.619Z,15.93
2018-06-17T04:32:20.481Z,15.97
2018-06-17T04:33:29.343Z,16.01
2018-06-17T04:34:38.206Z,16.02
2018-06-17T04:35:47.071Z,16.01
2018-06-17T04:36:55.930Z,16.07
2018-06-17T04:38:04.840Z,16
2018-06-17T04:39:13.703Z,16.01
2018-06-17T04:40:23.122Z,15.97
2018-06-17T04:41:32.259Z,16.02
2018-06-17T04:42:41.121Z,15.9
2018-06-17T04:43:50.081Z,16.04
2018-06-17T04:44:59.219Z,15.97
2018-06-17T04:46:08.639Z,16.01
2018-06-17T04:47:17.501Z,15.97
2018-06-17T04:48:26.408Z,15.97
2018-06-17T04:49:35.274Z,16.02
2018-06-17T04:50:44.135Z,16.01
2018-06-17T04:51:52.996Z,16.04
2018-06-17T04:53:02.432Z,16.05
2018-06-17T04:54:11.572Z,16.05
2018-06-17T04:55:20.534Z,16.14
2018-06-17T04:56:29.396Z,16.08
2018-06-17T04:57:38.543Z,16.12
2018-06-17T04:58:47.403Z,16.14
2018-06-17T04:59:56.577Z,16.17
2018-06-17T05:01:05.779Z,16.12
2018-06-17T05:02:14.643Z,16.14
2018-06-17T05:03:23.502Z,16.01
2018-06-17T05:04:32.366Z,16.07
2018-06-17T05:05:41.231Z,16.21
2018-06-17T05:06:50.090Z,16.11
2018-06-17T05:07:58.952Z,16.01
2018-06-17T05:09:07.816Z,16.01
2018-06-17T05:10:16.953Z,16.07
2018-06-17T05:11:25.816Z,16.07
2018-06-17T05:12:34.727Z,15.97
2018-06-17T05:13:43.592Z,16.02
2018-06-17T05:14:52.450Z,16.01
2018-06-17T05:16:01.312Z,16.04
2018-06-17T05:17:10.549Z,16.15
2018-06-17T05:18:20.060Z,16.21
2018-06-17T05:19:28.919Z,16.09
2018-06-17T05:20:37.781Z,16.28
2018-06-17T05:21:46.648Z,16.3
2018-06-17T05:22:55.789Z,16.27
2018-06-17T05:24:04.800Z,16.25
2018-06-17T05:25:13.663Z,16.27
2018-06-17T05:26:22.524Z,16.33
2018-06-17T05:27:31.663Z,16.24
2018-06-17T05:28:40.525Z,16.3
2018-06-17T05:29:49.709Z,16.34
2018-06-17T05:30:58.571Z,16.41
2018-06-17T05:32:07.431Z,16.39
2018-06-17T05:33:16.291Z,16.48
2018-06-17T05:34:25.149Z,16.45
2018-06-17T05:35:34.061Z,16.46
2018-06-17T05:36:43.205Z,16.45
2018-06-17T05:37:52.345Z,16.57
2018-06-17T05:39:01.482Z,16.57
2018-06-17T05:40:10.346Z,16.73
2018-06-17T05:41:19.209Z,16.68
2018-06-17T05:42:28.069Z,16.75
2018-06-17T05:43:36.930Z,16.75
2018-06-17T05:44:45.792Z,16.81
2018-06-17T05:45:54.654Z,16.85
2018-06-17T05:47:03.618Z,17
2018-06-17T05:48:12.479Z,16.94
2018-06-17T05:49:21.340Z,16.91
2018-06-17T05:50:30.202Z,16.97
2018-06-17T05:51:39.074Z,16.94
2018-06-17T05:52:47.936Z,16.98
2018-06-17T05:53:56.798Z,17.06
2018-06-17T05:55:05.660Z,17.08
2018-06-17T05:56:14.570Z,17.06
2018-06-17T05:57:23.987Z,17.08
2018-06-17T05:58:32.850Z,17.15
2018-06-17T05:59:42.279Z,17.15
2018-06-17T06:00:51.192Z,17.06
2018-06-17T06:02:00.194Z,17.18
2018-06-17T06:03:09.054Z,17.18
2018-06-17T06:04:18.194Z,17.12
2018-06-17T06:05:27.064Z,17.16
2018-06-17T06:06:37.251Z,17.07
2018-06-17T06:07:46.808Z,17.22
2018-06-17T06:08:55.670Z,17.19
2018-06-17T06:10:04.532Z,17.25
2018-06-17T06:11:13.394Z,17.07
2018-06-17T06:12:22.259Z,17.08
2018-06-17T06:13:31.172Z,17.23
2018-06-17T06:14:40.037Z,17.22
2018-06-17T06:15:48.896Z,17.25
2018-06-17T06:16:57.758Z,17.38
2018-06-17T06:18:06.672Z,17.34
2018-06-17T06:19:15.539Z,17.43
2018-06-17T06:20:24.408Z,17.4
2018-06-17T06:21:33.269Z,17.51
2018-06-17T06:22:42.132Z,17.43
2018-06-17T06:23:50.994Z,17.51
2018-06-17T06:24:59.855Z,17.43
2018-06-17T06:26:09.011Z,17.52
2018-06-17T06:27:18.149Z,17.58
2018-06-17T06:28:27.285Z,17.52
2018-06-17T06:29:36.504Z,17.64
2018-06-17T06:30:45.368Z,17.68
2018-06-17T06:31:54.230Z,17.9
2018-06-17T06:33:03.100Z,17.66
2018-06-17T06:34:11.955Z,17.63
2018-06-17T06:35:21.171Z,17.71
2018-06-17T06:36:30.036Z,17.75
2018-06-17T06:37:38.899Z,17.71
2018-06-17T06:38:48.039Z,17.7
2018-06-17T06:39:57.176Z,17.84
2018-06-17T06:41:06.187Z,17.87
2018-06-17T06:42:15.324Z,17.89
2018-06-17T06:43:24.186Z,17.95
2018-06-17T06:44:33.333Z,17.9
2018-06-17T06:45:42.647Z,17.84
2018-06-17T06:46:51.803Z,17.74
2018-06-17T06:48:00.670Z,17.79
2018-06-17T06:49:09.528Z,17.78
2018-06-17T06:50:18.396Z,17.77
2018-06-17T06:51:27.259Z,17.79
2018-06-17T06:52:36.223Z,17.79
2018-06-17T06:53:45.392Z,17.75
2018-06-17T06:54:54.809Z,17.71
2018-06-17T06:56:03.946Z,17.75
2018-06-17T06:57:12.810Z,17.96
2018-06-17T06:58:21.826Z,17.95
2018-06-17T06:59:30.692Z,17.89
2018-06-17T07:00:39.556Z,17.95
2018-06-17T07:01:48.693Z,17.99
2018-06-17T07:02:57.837Z,18.03
2018-06-17T07:04:06.698Z,17.97
2018-06-17T07:05:15.836Z,18.11
2018-06-17T07:06:24.790Z,18.14
2018-06-17T07:07:33.654Z,18.07
2018-06-17T07:08:42.798Z,18.15
2018-06-17T07:09:51.723Z,18.25
2018-06-17T07:11:00.582Z,18.17
2018-06-17T07:12:09.730Z,18.2
2018-06-17T07:13:18.590Z,18.08
2018-06-17T07:14:27.456Z,18.18
2018-06-17T07:15:36.373Z,18.2
2018-06-17T07:16:45.296Z,18.26
2018-06-17T07:17:54.093Z,18.23
2018-06-17T07:19:02.962Z,18.23
2018-06-17T07:20:11.824Z,18.12
2018-06-17T07:21:20.717Z,18.25
2018-06-17T07:22:29.908Z,18.21
2018-06-17T07:23:38.769Z,18.07
2018-06-17T07:24:47.906Z,18.1
2018-06-17T07:25:56.817Z,18.23
2018-06-17T07:27:05.739Z,18.25
2018-06-17T07:28:14.878Z,18.23
2018-06-17T07:29:23.749Z,18.35
2018-06-17T07:30:33.162Z,18.35
2018-06-17T07:31:42.029Z,18.45
2018-06-17T07:32:51.223Z,18.51
2018-06-17T07:34:00.086Z,18.52
2018-06-17T07:35:09.078Z,18.5
2018-06-17T07:36:18.429Z,18.33
2018-06-17T07:37:28.314Z,18.42
2018-06-17T07:38:37.297Z,18.55
2018-06-17T07:39:46.250Z,18.39
2018-06-17T07:40:55.457Z,18.45
2018-06-17T07:42:04.688Z,18.48
2018-06-17T07:43:13.800Z,18.42
2018-06-17T07:44:23.513Z,18.47
2018-06-17T07:45:32.621Z,18.54
2018-06-17T07:46:41.775Z,18.32
2018-06-17T07:47:50.775Z,18.39
2018-06-17T07:49:00.155Z,18.41
2018-06-17T07:50:09.816Z,18.35
2018-06-17T07:51:18.869Z,18.3
2018-06-17T07:52:27.872Z,18.3
2018-06-17T07:53:37.148Z,18.3
2018-06-17T07:54:46.407Z,18.35
2018-06-17T07:55:55.580Z,18.44
2018-06-17T07:57:05.199Z,18.51
2018-06-17T07:58:14.410Z,18.41
2018-06-17T07:59:23.546Z,18.45
2018-06-17T08:00:32.682Z,18.48
2018-06-17T08:01:42.234Z,18.54
2018-06-17T08:02:51.327Z,18.58
2018-06-17T08:04:00.437Z,18.6
2018-06-17T08:05:09.648Z,18.6
2018-06-17T08:06:19.059Z,18.57
2018-06-17T08:07:28.599Z,18.58
2018-06-17T08:08:37.790Z,18.54
2018-06-17T08:09:47.008Z,18.54
2018-06-17T08:10:57.054Z,18.58
2018-06-17T08:12:06.716Z,18.67
2018-06-17T08:13:16.197Z,18.6
2018-06-17T08:14:25.320Z,18.58
2018-06-17T08:15:34.464Z,18.57
2018-06-17T08:16:43.329Z,18.57
2018-06-17T08:17:52.466Z,18.62
2018-06-17T08:19:01.582Z,18.82
2018-06-17T08:20:10.467Z,18.78
2018-06-17T08:21:19.994Z,18.81
2018-06-17T08:22:28.858Z,18.84
2018-06-17T08:23:37.722Z,18.94
2018-06-17T08:24:46.738Z,18.95
2018-06-17T08:25:55.883Z,18.95
2018-06-17T08:27:04.753Z,19.02
2018-06-17T08:28:13.613Z,18.91
2018-06-17T08:29:22.753Z,18.94
2018-06-17T08:30:31.684Z,18.95
2018-06-17T08:31:40.871Z,19.07
2018-06-17T08:32:49.739Z,19.06
2018-06-17T08:33:58.600Z,19.19
2018-06-17T08:35:07.747Z,19.26
2018-06-17T08:36:16.986Z,19.32
2018-06-17T08:37:25.849Z,19.4
2018-06-17T08:38:34.988Z,19.58
2018-06-17T08:39:43.855Z,19.71
2018-06-17T08:40:53.065Z,19.68
2018-06-17T08:42:01.970Z,19.59
2018-06-17T08:43:10.834Z,19.62
2018-06-17T08:44:19.700Z,19.65
2018-06-17T08:45:29.121Z,19.68
2018-06-17T08:46:37.988Z,19.61
2018-06-17T08:47:47.223Z,19.62
2018-06-17T08:48:56.089Z,19.59
2018-06-17T08:50:05.232Z,19.51
2018-06-17T08:51:14.093Z,19.51
2018-06-17T08:52:22.949Z,19.54
2018-06-17T08:53:31.819Z,19.63
2018-06-17T08:54:40.687Z,19.59
2018-06-17T08:55:49.552Z,19.63
2018-06-17T08:56:58.540Z,19.77
2018-06-17T08:58:07.404Z,19.78
2018-06-17T08:59:16.269Z,19.98
2018-06-17T09:00:25.136Z,20.01
2018-06-17T09:01:34.276Z,19.96
2018-06-17T09:02:43.164Z,20.05
2018-06-17T09:03:52.027Z,20.03
2018-06-17T09:05:00.944Z,20.1
2018-06-17T09:06:09.813Z,19.95
2018-06-17T09:07:18.679Z,19.88
2018-06-17T09:08:27.543Z,19.88
2018-06-17T09:09:36.404Z,19.95
2018-06-17T09:10:45.521Z,19.74
2018-06-17T09:11:54.383Z,19.76
2018-06-17T09:13:03.525Z,19.8
2018-06-17T09:14:12.426Z,19.76
2018-06-17T09:15:21.572Z,19.73
2018-06-17T09:16:30.436Z,19.65
2018-06-17T09:17:39.302Z,19.68
2018-06-17T09:18:48.166Z,19.8
2018-06-17T09:19:57.033Z,19.8
2018-06-17T09:21:06.183Z,19.92
2018-06-17T09:22:15.377Z,19.88
2018-06-17T09:23:24.244Z,20.1
2018-06-17T09:24:33.109Z,20.06
2018-06-17T09:25:42.251Z,20.08
2018-06-17T09:26:51.113Z,20.02
2018-06-17T09:28:00.126Z,20.08
2018-06-17T09:29:08.991Z,20.05
2018-06-17T09:30:17.853Z,20.05
2018-06-17T09:31:27.007Z,20.16
2018-06-17T09:32:35.869Z,20.16
2018-06-17T09:33:44.782Z,20.16
2018-06-17T09:34:53.927Z,20.08
2018-06-17T09:36:03.066Z,20.16
2018-06-17T09:37:12.533Z,20.2
2018-06-17T09:38:21.718Z,20.23
2018-06-17T09:39:30.684Z,20.2
2018-06-17T09:40:39.585Z,20.31
2018-06-17T09:41:48.798Z,20.36
2018-06-17T09:42:57.730Z,20.43
2018-06-17T09:44:06.655Z,20.5
2018-06-17T09:45:15.674Z,20.41
2018-06-17T09:46:24.544Z,20.33
2018-06-17T09:47:33.411Z,20.33
2018-06-17T09:48:42.334Z,20.33
2018-06-17T09:49:51.511Z,20.35
2018-06-17T09:51:00.477Z,20.28
2018-06-17T09:52:09.388Z,20.43
2018-06-17T09:53:18.299Z,20.33
2018-06-17T09:54:27.252Z,20.39
2018-06-17T09:55:36.397Z,20.41
2018-06-17T09:56:45.599Z,20.31
2018-06-17T09:57:54.508Z,20.33
2018-06-17T09:59:03.379Z,20.33
2018-06-17T10:00:12.527Z,20.35
2018-06-17T10:01:21.450Z,20.42
2018-06-17T10:02:31.227Z,20.43
2018-06-17T10:03:40.183Z,20.36
2018-06-17T10:04:49.046Z,20.36
2018-06-17T10:05:58.191Z,20.33
2018-06-17T10:07:07.055Z,20.29
2018-06-17T10:08:15.969Z,20.28
2018-06-17T10:09:25.107Z,20.38
2018-06-17T10:10:33.986Z,20.35
2018-06-17T10:11:42.858Z,20.36
2018-06-17T10:12:52.015Z,20.38
2018-06-17T10:14:01.308Z,20.42
2018-06-17T10:15:10.174Z,20.36
2018-06-17T10:16:19.040Z,20.43
2018-06-17T10:17:28.182Z,20.36
2018-06-17T10:18:37.048Z,20.47
2018-06-17T10:19:46.293Z,20.48
2018-06-17T10:20:55.159Z,20.5
2018-06-17T10:22:04.025Z,20.42
2018-06-17T10:23:12.890Z,20.52
2018-06-17T10:24:21.760Z,20.51
2018-06-17T10:25:31.638Z,20.39
2018-06-17T10:26:40.780Z,20.5
2018-06-17T10:27:49.921Z,20.48
2018-06-17T10:28:58.782Z,20.51
2018-06-17T10:30:07.646Z,20.66
2018-06-17T10:31:16.512Z,20.59
2018-06-17T10:32:25.384Z,20.51
2018-06-17T10:33:34.524Z,20.54
2018-06-17T10:34:43.387Z,20.51
2018-06-17T10:35:52.262Z,20.5
2018-06-17T10:37:01.400Z,20.5
2018-06-17T10:38:10.678Z,20.61
2018-06-17T10:39:20.248Z,20.62
2018-06-17T10:40:29.113Z,20.58
2018-06-17T10:41:38.255Z,20.69
2018-06-17T10:42:47.269Z,20.76
2018-06-17T10:43:56.134Z,20.8
2018-06-17T10:45:04.997Z,20.82
2018-06-17T10:46:13.862Z,20.94
2018-06-17T10:47:22.728Z,20.89
2018-06-17T10:48:31.594Z,21.06
2018-06-17T10:49:40.459Z,21.06
2018-06-17T10:50:49.325Z,21.01
2018-06-17T10:51:58.187Z,21.06
2018-06-17T10:53:07.055Z,20.95
2018-06-17T10:54:16.070Z,20.92
2018-06-17T10:55:24.940Z,20.95
2018-06-17T10:56:33.903Z,20.98
2018-06-17T10:57:43.048Z,21.12
2018-06-17T10:58:51.920Z,21.09
2018-06-17T11:00:01.066Z,21.22
2018-06-17T11:01:10.222Z,21.24
2018-06-17T11:02:19.369Z,21.24
2018-06-17T11:03:28.234Z,21.35
2018-06-17T11:04:37.101Z,21.25
2018-06-17T11:05:46.101Z,21.37
2018-06-17T11:06:55.344Z,21.31
2018-06-17T11:08:04.489Z,21.4
2018-06-17T11:09:13.356Z,21.47
2018-06-17T11:10:22.219Z,21.52
2018-06-17T11:11:31.801Z,21.62
2018-06-17T11:12:40.668Z,21.61
2018-06-17T11:13:49.815Z,21.53
2018-06-17T11:14:58.686Z,21.68
2018-06-17T11:16:07.548Z,21.5
2018-06-17T11:17:16.740Z,21.43
2018-06-17T11:18:25.882Z,21.46
2018-06-17T11:19:34.789Z,21.49
2018-06-17T11:20:43.614Z,21.37
2018-06-17T11:21:52.480Z,21.29
2018-06-17T11:23:01.443Z,21.27
2018-06-17T11:24:10.308Z,21.19
2018-06-17T11:25:19.173Z,21.09
2018-06-17T11:26:28.040Z,21.24
2018-06-17T11:27:37.514Z,21.4
2018-06-17T11:28:46.712Z,21.47
2018-06-17T11:29:55.574Z,21.47
2018-06-17T11:31:04.720Z,21.56
2018-06-17T11:32:13.583Z,21.49
2018-06-17T11:33:22.448Z,21.62
2018-06-17T11:34:31.461Z,21.68
2018-06-17T11:35:40.331Z,21.67
2018-06-17T11:36:49.194Z,21.71
2018-06-17T11:37:58.063Z,21.75
2018-06-17T11:39:07.471Z,21.8
2018-06-17T11:40:16.289Z,21.83
2018-06-17T11:41:25.165Z,21.92
2018-06-17T11:42:34.306Z,21.83
2018-06-17T11:43:43.172Z,21.84
2018-06-17T11:44:52.037Z,21.86
2018-06-17T11:46:01.052Z,21.86
2018-06-17T11:47:09.920Z,21.71
2018-06-17T11:48:18.887Z,21.69
2018-06-17T11:49:28.312Z,21.67
2018-06-17T11:50:37.468Z,21.62
2018-06-17T11:51:47.019Z,21.68
2018-06-17T11:52:56.159Z,21.62
2018-06-17T11:54:05.023Z,21.64
2018-06-17T11:55:13.889Z,21.61
2018-06-17T11:56:23.311Z,21.65
2018-06-17T11:57:32.400Z,21.64
2018-06-17T11:58:41.269Z,21.65
2018-06-17T11:59:50.873Z,21.75
2018-06-17T12:00:59.646Z,21.83
2018-06-17T12:02:08.515Z,21.88
2018-06-17T12:03:17.387Z,21.82
2018-06-17T12:04:26.249Z,21.8
2018-06-17T12:05:35.219Z,21.75
2018-06-17T12:06:44.086Z,21.84
2018-06-17T12:07:53.514Z,21.77
2018-06-17T12:09:02.432Z,21.77
2018-06-17T12:10:11.298Z,21.68
2018-06-17T12:11:20.482Z,21.82
2018-06-17T12:12:29.349Z,21.82
2018-06-17T12:13:38.212Z,21.79
2018-06-17T12:14:47.275Z,21.88
2018-06-17T12:15:56.044Z,21.91
2018-06-17T12:17:04.909Z,21.91
2018-06-17T12:18:13.774Z,22.02
2018-06-17T12:19:22.639Z,22.05
2018-06-17T12:20:31.508Z,22.06
2018-06-17T12:21:40.375Z,22.03
2018-06-17T12:22:49.240Z,21.98
2018-06-17T12:23:58.108Z,22.1
2018-06-17T12:25:06.977Z,21.96
2018-06-17T12:26:15.947Z,22.14
2018-06-17T12:27:24.815Z,22.02
2018-06-17T12:28:33.679Z,22.03
2018-06-17T12:29:42.545Z,22
2018-06-17T12:30:51.410Z,22.02
2018-06-17T12:32:00.374Z,22.03
2018-06-17T12:33:09.251Z,22.06
2018-06-17T12:34:18.394Z,22.09
2018-06-17T12:35:27.546Z,22.12
2018-06-17T12:36:36.688Z,22.12
2018-06-17T12:37:45.604Z,22.09
2018-06-17T12:38:54.469Z,22.21
2018-06-17T12:40:03.904Z,22.05
2018-06-17T12:41:13.053Z,21.91
2018-06-17T12:42:21.956Z,21.88
2018-06-17T12:43:30.821Z,21.77
2018-06-17T12:44:39.690Z,21.91
2018-06-17T12:45:48.834Z,21.92
2018-06-17T12:46:57.702Z,21.9
2018-06-17T12:48:06.596Z,21.91
2018-06-17T12:49:15.880Z,21.91
2018-06-17T12:50:25.129Z,22
2018-06-17T12:51:34.273Z,21.9
2018-06-17T12:52:43.136Z,21.88
2018-06-17T12:53:52.287Z,21.92
2018-06-17T12:55:01.224Z,21.86
2018-06-17T12:56:10.090Z,21.79
2018-06-17T12:57:18.959Z,21.83
2018-06-17T12:58:28.104Z,21.83
2018-06-17T12:59:37.251Z,21.84
2018-06-17T13:00:46.120Z,21.92
2018-06-17T13:01:55.021Z,21.92
2018-06-17T13:03:03.887Z,21.86
2018-06-17T13:04:12.756Z,21.88
2018-06-17T13:05:21.937Z,21.98
2018-06-17T13:06:31.711Z,21.98
2018-06-17T13:07:40.663Z,22.17
2018-06-17T13:08:49.530Z,22.31
2018-06-17T13:09:58.395Z,22.21
2018-06-17T13:11:07.270Z,22.3
2018-06-17T13:12:16.141Z,22.49
2018-06-17T13:13:25.286Z,22.57
2018-06-17T13:14:34.172Z,22.55
2018-06-17T13:15:43.040Z,22.54
2018-06-17T13:16:52.189Z,22.7
2018-06-17T13:18:01.161Z,22.67
2018-06-17T13:19:10.370Z,22.75
2018-06-17T13:20:19.185Z,22.75
2018-06-17T13:21:28.334Z,22.9
2018-06-17T13:22:37.203Z,22.83
2018-06-17T13:23:46.225Z,23.01
2018-06-17T13:24:55.099Z,22.98
2018-06-17T13:26:04.063Z,23.04
2018-06-17T13:27:12.929Z,23.1
2018-06-17T13:28:22.077Z,23.04
2018-06-17T13:29:31.036Z,23.2
2018-06-17T13:30:39.906Z,23.19
2018-06-17T13:31:48.777Z,23.25
2018-06-17T13:32:57.646Z,23.23
2018-06-17T13:34:06.519Z,23.4
2018-06-17T13:35:15.540Z,23.36
2018-06-17T13:36:24.412Z,23.25
2018-06-17T13:37:33.333Z,23.25
2018-06-17T13:38:42.481Z,23.2
2018-06-17T13:39:51.350Z,23.04
2018-06-17T13:41:00.273Z,23.01
2018-06-17T13:42:09.142Z,23.13
2018-06-17T13:43:18.014Z,23.27
2018-06-17T13:44:27.156Z,23.22
2018-06-17T13:45:36.023Z,23.12
2018-06-17T13:46:44.899Z,23.16
2018-06-17T13:47:53.770Z,23.01
2018-06-17T13:49:02.639Z,22.94
2018-06-17T13:50:11.510Z,22.97
2018-06-17T13:51:20.380Z,22.94
2018-06-17T13:52:29.644Z,23.1
2018-06-17T13:53:38.580Z,23.2
2018-06-17T13:54:47.451Z,23.19
2018-06-17T13:55:56.940Z,23.31
2018-06-17T13:57:05.799Z,23.43
2018-06-17T13:58:14.722Z,23.55
2018-06-17T13:59:23.870Z,23.65
2018-06-17T14:00:33.195Z,23.76
2018-06-17T14:01:42.684Z,23.79
2018-06-17T14:02:51.622Z,23.84
2018-06-17T14:04:00.837Z,23.79
2018-06-17T14:05:09.841Z,23.75
2018-06-17T14:06:18.784Z,23.76
2018-06-17T14:07:28.136Z,23.75
2018-06-17T14:08:37.011Z,23.78
2018-06-17T14:09:45.932Z,23.85
2018-06-17T14:10:54.804Z,23.8
2018-06-17T14:12:03.682Z,23.66
2018-06-17T14:13:12.905Z,23.68
2018-06-17T14:14:21.916Z,23.65
2018-06-17T14:15:30.976Z,23.43
2018-06-17T14:16:39.908Z,23.32
2018-06-17T14:17:48.785Z,23.05
2018-06-17T14:18:57.667Z,23.02
2018-06-17T14:20:06.819Z,22.94
2018-06-17T14:21:16.033Z,22.88
2018-06-17T14:22:24.903Z,22.83
2018-06-17T14:23:33.873Z,22.77
2018-06-17T14:24:43.020Z,22.79
2018-06-17T14:25:51.883Z,22.77
2018-06-17T14:27:01.104Z,22.73
2018-06-17T14:28:09.967Z,22.8
2018-06-17T14:29:18.832Z,22.57
2018-06-17T14:30:27.706Z,22.75
2018-06-17T14:31:36.856Z,22.58
2018-06-17T14:32:46.252Z,22.64
2018-06-17T14:33:55.123Z,22.49
2018-06-17T14:35:04.011Z,22.49
2018-06-17T14:36:12.905Z,22.33
2018-06-17T14:37:21.797Z,22.28
2018-06-17T14:38:31.060Z,22.35
2018-06-17T14:39:39.946Z,22.2
2018-06-17T14:40:48.813Z,22.14
2018-06-17T14:41:57.953Z,22.09
2018-06-17T14:43:06.834Z,22
2018-06-17T14:44:15.859Z,22
2018-06-17T14:45:25.029Z,22
2018-06-17T14:46:33.896Z,21.9
2018-06-17T14:47:42.763Z,21.9
2018-06-17T14:48:51.633Z,21.8
2018-06-17T14:50:00.921Z,21.68
2018-06-17T14:51:09.748Z,21.61
2018-06-17T14:52:18.622Z,21.71
2018-06-17T14:53:27.773Z,21.67